createdAt,value
2023-04-14T00:00:54.260Z,9.11
2023-04-14T00:03:22.188Z,9.10
2023-04-14T00:05:50.223Z,9.08
2023-04-14T00:08:18.027Z,9.04
2023-04-14T00:10:45.781Z,9.03
2023-04-14T00:13:13.694Z,9.01
2023-04-14T00:15:42.856Z,8.97
2023-04-14T00:18:10.748Z,8.95
2023-04-14T00:20:38.590Z,8.91
2023-04-14T00:23:06.401Z,8.89
2023-04-14T00:25:34.157Z,8.90
2023-04-14T00:28:01.971Z,8.83
2023-04-14T00:30:30.079Z,8.80
2023-04-14T00:32:59.258Z,8.77
2023-04-14T00:35:27.150Z,8.71
2023-04-14T00:37:56.638Z,8.68
2023-04-14T00:40:24.335Z,8.63
2023-04-14T00:42:52.255Z,8.59
2023-04-14T00:45:20.371Z,8.58
2023-04-14T00:47:50.639Z,8.54
2023-04-14T00:50:21.841Z,8.52
2023-04-14T00:52:51.215Z,8.49
2023-04-14T00:55:21.190Z,8.43
2023-04-14T00:57:49.756Z,8.38
2023-04-14T01:00:18.490Z,8.30
2023-04-14T01:02:46.706Z,8.21
2023-04-14T01:05:14.717Z,8.17
2023-04-14T01:07:44.185Z,8.14
2023-04-14T01:10:13.099Z,8.08
2023-04-14T01:13:01.052Z,7.96
2023-04-14T01:15:35.650Z,7.91
2023-04-14T01:18:11.745Z,7.86
2023-04-14T01:20:44.738Z,7.76
2023-04-14T01:23:22.042Z,7.71
2023-04-14T01:26:21.642Z,7.62
2023-04-14T01:29:32.296Z,7.65
2023-04-14T01:32:06.123Z,7.63
2023-04-14T01:34:38.878Z,7.61
2023-04-14T01:37:09.515Z,7.57
2023-04-14T01:39:42.000Z,7.54
2023-04-14T01:42:12.327Z,7.52
2023-04-14T01:44:41.648Z,7.39
2023-04-14T01:47:14.526Z,7.32
2023-04-14T01:49:44.991Z,7.28
2023-04-14T01:52:16.404Z,7.26
2023-04-14T01:54:45.879Z,7.21
2023-04-14T01:57:16.660Z,7.20
2023-04-14T01:59:46.119Z,7.14
2023-04-14T02:02:18.717Z,7.15
2023-04-14T02:04:47.587Z,7.16
2023-04-14T02:07:16.780Z,7.16
2023-04-14T02:09:46.208Z,7.04
2023-04-14T02:12:14.076Z,7.02
2023-04-14T02:14:43.259Z,7.00
2023-04-14T02:17:12.742Z,6.99
2023-04-14T02:19:45.076Z,6.99
2023-04-14T02:22:13.123Z,6.92
2023-04-14T02:24:40.934Z,6.90
2023-04-14T02:27:12.904Z,6.87
2023-04-14T02:29:43.723Z,6.87
2023-04-14T02:32:18.616Z,6.82
2023-04-14T02:34:53.433Z,6.79
2023-04-14T02:37:26.610Z,6.77
2023-04-14T02:40:00.229Z,6.75
2023-04-14T02:42:29.741Z,6.73
2023-04-14T02:45:03.518Z,6.72
2023-04-14T02:47:35.398Z,6.65
2023-04-14T02:50:07.492Z,6.64
2023-04-14T02:52:36.122Z,6.54
2023-04-14T02:55:05.464Z,6.56
2023-04-14T02:57:35.125Z,6.58
2023-04-14T03:00:03.814Z,6.58
2023-04-14T03:02:32.717Z,6.58
2023-04-14T03:05:01.406Z,6.54
2023-04-14T03:07:32.628Z,6.52
2023-04-14T03:10:01.444Z,6.52
2023-04-14T03:12:30.546Z,6.50
2023-04-14T03:15:00.540Z,6.50
2023-04-14T03:17:29.912Z,6.52
2023-04-14T03:19:57.971Z,6.48
2023-04-14T03:22:28.241Z,6.48
2023-04-14T03:24:58.870Z,6.45
2023-04-14T03:27:30.718Z,6.39
2023-04-14T03:30:03.940Z,6.36
2023-04-14T03:32:35.869Z,6.32
2023-04-14T03:35:04.921Z,6.30
2023-04-14T03:37:36.856Z,6.27
2023-04-14T03:40:11.254Z,6.19
2023-04-14T03:42:44.604Z,6.18
2023-04-14T03:45:13.645Z,6.21
2023-04-14T03:47:41.486Z,6.19
2023-04-14T03:50:11.707Z,6.13
2023-04-14T03:52:41.359Z,6.06
2023-04-14T03:55:13.609Z,6.03
2023-04-14T03:57:43.865Z,5.96
2023-04-14T04:00:13.946Z,5.99
2023-04-14T04:02:43.921Z,5.95
2023-04-14T04:05:12.209Z,5.96
2023-04-14T04:07:41.424Z,5.95
2023-04-14T04:10:13.759Z,5.92
2023-04-14T04:12:44.089Z,5.89
2023-04-14T04:15:12.670Z,5.87
2023-04-14T04:17:42.024Z,5.88
2023-04-14T04:20:15.382Z,5.87
2023-04-14T04:22:46.185Z,5.85
2023-04-14T04:25:16.199Z,5.83
2023-04-14T04:27:44.334Z,5.82
2023-04-14T04:30:14.221Z,5.80
2023-04-14T04:32:42.046Z,5.78
2023-04-14T04:35:11.512Z,5.77
2023-04-14T04:37:39.554Z,5.77
2023-04-14T04:40:08.685Z,5.76
2023-04-14T04:42:41.965Z,5.72
2023-04-14T04:45:11.153Z,5.70
2023-04-14T04:47:39.107Z,5.70
2023-04-14T04:50:07.706Z,5.68
2023-04-14T04:52:35.555Z,5.71
2023-04-14T04:55:03.287Z,5.72
2023-04-14T04:57:31.527Z,5.74
2023-04-14T05:00:01.070Z,5.75
2023-04-14T05:02:29.338Z,5.75
2023-04-14T05:04:57.485Z,5.82
2023-04-14T05:07:25.257Z,5.87
2023-04-14T05:09:53.074Z,5.91
2023-04-14T05:12:20.829Z,5.87
2023-04-14T05:14:48.594Z,5.83
2023-04-14T05:17:17.763Z,5.80
2023-04-14T05:19:46.289Z,5.79
2023-04-14T05:22:14.079Z,5.84
2023-04-14T05:24:41.973Z,5.82
2023-04-14T05:27:14.610Z,5.86
2023-04-14T05:29:42.765Z,5.89
2023-04-14T05:32:11.658Z,5.85
2023-04-14T05:34:41.162Z,5.82
2023-04-14T05:37:08.906Z,5.93
2023-04-14T05:39:36.815Z,6.03
2023-04-14T05:42:04.632Z,6.12
2023-04-14T05:44:32.479Z,6.18
2023-04-14T05:47:00.410Z,6.24
2023-04-14T05:49:28.451Z,6.30
2023-04-14T05:51:58.237Z,6.39
2023-04-14T05:54:25.988Z,6.44
2023-04-14T05:56:53.821Z,6.51
2023-04-14T05:59:21.660Z,6.60
2023-04-14T06:01:49.503Z,6.68
2023-04-14T06:04:17.430Z,6.78
2023-04-14T06:06:46.704Z,6.89
2023-04-14T06:09:16.794Z,7.00
2023-04-14T06:11:44.512Z,7.12
2023-04-14T06:14:12.392Z,7.20
2023-04-14T06:16:40.176Z,7.28
2023-04-14T06:19:08.032Z,7.35
2023-04-14T06:21:35.829Z,7.44
2023-04-14T06:24:03.576Z,7.54
2023-04-14T06:26:33.004Z,7.62
2023-04-14T06:29:01.397Z,7.73
2023-04-14T06:31:29.322Z,7.79
2023-04-14T06:33:57.179Z,7.86
2023-04-14T06:36:24.950Z,7.91
2023-04-14T06:38:53.263Z,8.00
2023-04-14T06:41:21.070Z,8.10
2023-04-14T06:43:50.450Z,8.18
2023-04-14T06:46:18.369Z,8.23
2023-04-14T06:48:46.265Z,8.29
2023-04-14T06:51:14.401Z,8.36
2023-04-14T06:53:42.166Z,8.41
2023-04-14T06:56:10.130Z,8.46
2023-04-14T06:58:38.171Z,8.54
2023-04-14T07:01:07.453Z,8.62
2023-04-14T07:03:35.635Z,8.71
2023-04-14T07:06:04.475Z,8.76
2023-04-14T07:08:34.863Z,8.81
2023-04-14T07:11:04.488Z,8.89
2023-04-14T07:13:32.544Z,8.93
2023-04-14T07:16:02.271Z,9.02
2023-04-14T07:18:32.786Z,9.11
2023-04-14T07:21:01.066Z,9.17
2023-04-14T07:23:29.394Z,9.24
2023-04-14T07:25:59.230Z,9.30
2023-04-14T07:28:28.588Z,9.39
2023-04-14T07:30:56.805Z,9.47
2023-04-14T07:33:26.984Z,9.53
2023-04-14T07:36:03.621Z,9.60
2023-04-14T07:38:32.265Z,9.68
2023-04-14T07:41:01.268Z,9.78
2023-04-14T07:43:34.776Z,9.86
2023-04-14T07:46:04.492Z,9.93
2023-04-14T07:48:32.714Z,9.98
2023-04-14T07:51:01.879Z,10.06
2023-04-14T07:53:31.042Z,10.14
2023-04-14T07:56:01.821Z,10.22
2023-04-14T07:58:30.028Z,10.30
2023-04-14T08:00:58.879Z,10.39
2023-04-14T08:03:26.965Z,10.43
2023-04-14T08:05:55.015Z,10.49
2023-04-14T08:08:24.428Z,10.54
2023-04-14T08:10:54.630Z,10.60
2023-04-14T08:13:22.559Z,10.66
2023-04-14T08:15:50.706Z,10.70
2023-04-14T08:18:18.953Z,10.70
2023-04-14T08:20:46.913Z,10.80
2023-04-14T08:23:14.821Z,10.91
2023-04-14T08:25:44.389Z,10.98
2023-04-14T08:28:12.472Z,11.06
2023-04-14T08:30:40.343Z,11.14
2023-04-14T08:33:08.367Z,11.20
2023-04-14T08:35:42.124Z,11.25
2023-04-14T08:38:11.240Z,11.32
2023-04-14T08:40:40.835Z,11.37
2023-04-14T08:43:13.178Z,11.43
2023-04-14T08:45:43.237Z,11.53
2023-04-14T08:48:12.997Z,11.58
2023-04-14T08:50:50.563Z,11.66
2023-04-14T08:53:24.066Z,11.68
2023-04-14T08:55:57.518Z,11.70
2023-04-14T08:58:27.614Z,11.74
2023-04-14T09:00:55.786Z,11.85
2023-04-14T09:03:24.977Z,11.94
2023-04-14T09:05:54.171Z,12.02
2023-04-14T09:08:22.241Z,12.06
2023-04-14T09:10:51.275Z,12.11
2023-04-14T09:13:23.094Z,12.19
2023-04-14T09:15:52.467Z,12.24
2023-04-14T09:18:20.415Z,12.33
2023-04-14T09:21:29.968Z,12.40
2023-04-14T09:23:36.865Z,12.46
2023-04-14T09:26:09.334Z,12.59
2023-04-14T09:28:37.298Z,12.61
2023-04-14T09:31:06.842Z,12.59
2023-04-14T09:33:39.520Z,12.57
2023-04-14T09:36:07.458Z,12.54
2023-04-14T09:38:37.972Z,12.64
2023-04-14T09:41:07.705Z,12.71
2023-04-14T09:43:36.864Z,12.76
2023-04-14T09:46:09.576Z,12.86
2023-04-14T09:48:39.704Z,12.96
2023-04-14T09:51:10.017Z,13.04
2023-04-14T09:53:40.278Z,13.16
2023-04-14T09:56:10.631Z,13.23
2023-04-14T09:58:39.983Z,13.26
2023-04-14T10:01:13.702Z,13.26
2023-04-14T10:03:42.892Z,13.38
2023-04-14T10:06:16.198Z,13.44
2023-04-14T10:08:46.369Z,13.55
2023-04-14T10:11:19.964Z,13.69
2023-04-14T10:13:49.451Z,13.85
2023-04-14T10:16:19.243Z,13.93
2023-04-14T10:18:47.733Z,14.01
2023-04-14T10:21:17.390Z,14.10
2023-04-14T10:23:47.315Z,14.11
2023-04-14T10:26:16.443Z,14.12
2023-04-14T10:28:46.509Z,14.13
2023-04-14T10:31:20.351Z,14.17
2023-04-14T10:33:49.782Z,14.21
2023-04-14T10:36:25.865Z,14.16
2023-04-14T10:39:02.054Z,14.24
2023-04-14T10:41:45.877Z,14.39
2023-04-14T10:44:24.172Z,14.61
2023-04-14T10:46:54.053Z,14.70
2023-04-14T10:49:26.588Z,14.85
2023-04-14T10:51:54.144Z,14.91
2023-04-14T10:54:21.965Z,14.94
2023-04-14T10:57:12.583Z,14.96
2023-04-14T10:59:44.015Z,14.94
2023-04-14T11:02:25.460Z,14.94
2023-04-14T11:05:04.233Z,14.99
2023-04-14T11:07:38.119Z,15.02
2023-04-14T11:10:27.594Z,15.03
2023-04-14T11:13:02.605Z,15.12
2023-04-14T11:16:03.554Z,15.22
2023-04-14T11:18:37.179Z,15.29
2023-04-14T11:21:07.754Z,15.30
2023-04-14T11:23:36.975Z,15.34
2023-04-14T11:26:07.328Z,15.40
2023-04-14T11:28:37.185Z,15.46
2023-04-14T11:31:06.824Z,15.54
2023-04-14T11:33:37.149Z,15.64
2023-04-14T11:36:08.003Z,15.75
2023-04-14T11:38:40.250Z,15.96
2023-04-14T11:41:08.250Z,16.12
2023-04-14T11:43:36.554Z,16.15
2023-04-14T11:46:08.116Z,16.02
2023-04-14T11:48:36.974Z,15.93
2023-04-14T11:51:06.793Z,15.88
2023-04-14T11:53:34.764Z,15.79
2023-04-14T11:56:02.779Z,15.75
2023-04-14T11:58:30.944Z,15.87
2023-04-14T12:00:59.028Z,15.97
2023-04-14T12:03:30.815Z,16.16
2023-04-14T12:06:00.046Z,16.29
2023-04-14T12:08:32.902Z,16.29
2023-04-14T12:11:13.651Z,16.23
2023-04-14T12:13:42.325Z,16.19
2023-04-14T12:16:10.683Z,16.20
2023-04-14T12:18:39.541Z,16.27
2023-04-14T12:21:10.848Z,16.48
2023-04-14T12:23:41.800Z,16.57
2023-04-14T12:26:11.900Z,16.54
2023-04-14T12:28:41.674Z,16.44
2023-04-14T12:31:10.460Z,16.32
2023-04-14T12:33:38.491Z,16.26
2023-04-14T12:36:08.025Z,16.25
2023-04-14T12:38:35.914Z,16.39
2023-04-14T12:41:05.401Z,16.41
2023-04-14T12:43:35.567Z,16.42
2023-04-14T12:46:04.340Z,16.39
2023-04-14T12:48:44.371Z,16.33
2023-04-14T12:51:14.001Z,16.49
2023-04-14T12:53:42.788Z,16.59
2023-04-14T12:56:14.148Z,16.61
2023-04-14T12:58:43.909Z,16.60
2023-04-14T13:01:12.954Z,16.56
2023-04-14T13:03:43.188Z,16.55
2023-04-14T13:06:12.660Z,16.52
2023-04-14T13:08:44.702Z,16.58
2023-04-14T13:11:14.665Z,16.75
2023-04-14T13:13:44.428Z,17.00
2023-04-14T13:16:15.829Z,17.08
2023-04-14T13:18:45.302Z,17.08
2023-04-14T13:21:13.463Z,17.08
2023-04-14T13:23:41.661Z,17.06
2023-04-14T13:26:09.690Z,17.11
2023-04-14T13:28:39.279Z,17.16
2023-04-14T13:31:07.250Z,17.17
2023-04-14T13:33:35.166Z,17.20
2023-04-14T13:36:03.452Z,17.21
2023-04-14T13:38:31.791Z,17.18
2023-04-14T13:40:59.647Z,17.22
2023-04-14T13:43:27.815Z,17.31
2023-04-14T13:45:59.188Z,17.44
2023-04-14T13:48:27.217Z,17.44
2023-04-14T13:50:56.009Z,17.39
2023-04-14T13:53:23.897Z,17.26
2023-04-14T13:55:51.786Z,17.16
2023-04-14T13:58:19.549Z,17.18
2023-04-14T14:00:47.345Z,17.21
2023-04-14T14:03:16.498Z,17.21
2023-04-14T14:05:44.549Z,17.27
2023-04-14T14:08:12.291Z,17.34
2023-04-14T14:10:58.270Z,17.44
2023-04-14T14:13:25.980Z,17.56
2023-04-14T14:15:53.874Z,17.68
2023-04-14T14:18:23.944Z,17.83
2023-04-14T14:20:52.359Z,17.93
2023-04-14T14:23:20.187Z,17.92
2023-04-14T14:25:47.951Z,17.90
2023-04-14T14:28:15.756Z,17.93
2023-04-14T14:30:43.532Z,17.96
2023-04-14T14:33:11.451Z,18.05
2023-04-14T14:35:40.709Z,18.07
2023-04-14T14:38:08.423Z,18.05
2023-04-14T14:40:36.438Z,17.98
2023-04-14T14:43:04.226Z,17.91
2023-04-14T14:45:32.823Z,17.93
2023-04-14T14:48:01.332Z,17.96
2023-04-14T14:50:29.156Z,18.04
2023-04-14T14:52:58.251Z,18.01
2023-04-14T14:55:27.167Z,18.04
2023-04-14T14:57:54.980Z,17.94
2023-04-14T15:00:22.716Z,17.99
2023-04-14T15:02:50.882Z,18.03
2023-04-14T15:05:19.116Z,18.10
2023-04-14T15:07:46.919Z,18.14
2023-04-14T15:10:16.273Z,18.19
2023-04-14T15:12:44.117Z,18.26
2023-04-14T15:15:13.214Z,18.30
2023-04-14T15:17:41.093Z,18.31
2023-04-14T15:20:09.941Z,18.40
2023-04-14T15:22:37.882Z,18.52
2023-04-14T15:25:07.065Z,18.57
2023-04-14T15:27:36.514Z,18.63
2023-04-14T15:30:04.538Z,18.61
2023-04-14T15:32:32.597Z,18.50
2023-04-14T15:35:00.424Z,18.41
2023-04-14T15:37:28.205Z,18.36
2023-04-14T15:39:56.789Z,18.35
2023-04-14T15:42:24.702Z,18.43
2023-04-14T15:44:54.012Z,18.48
2023-04-14T15:47:21.956Z,18.48
2023-04-14T15:49:49.927Z,18.41
2023-04-14T15:52:21.715Z,18.41
2023-04-14T15:54:49.550Z,18.45
2023-04-14T15:57:17.819Z,18.43
2023-04-14T15:59:45.830Z,18.44
2023-04-14T16:02:15.111Z,18.52
2023-04-14T16:04:43.095Z,18.44
2023-04-14T16:07:11.261Z,18.39
2023-04-14T16:09:40.965Z,18.34
2023-04-14T16:12:08.860Z,18.22
2023-04-14T16:14:37.657Z,18.10
2023-04-14T16:17:05.494Z,18.04
2023-04-14T16:19:35.681Z,18.03
2023-04-14T16:22:03.806Z,17.98
2023-04-14T16:24:31.772Z,17.89
2023-04-14T16:26:59.861Z,17.72
2023-04-14T16:29:28.729Z,17.62
2023-04-14T16:31:56.639Z,17.44
2023-04-14T16:34:24.440Z,17.23
2023-04-14T16:36:54.116Z,17.08
2023-04-14T16:39:22.346Z,16.99
2023-04-14T16:41:50.104Z,16.96
2023-04-14T16:44:17.932Z,16.77
2023-04-14T16:46:46.301Z,16.77
2023-04-14T16:49:14.769Z,16.67
2023-04-14T16:51:43.005Z,16.58
2023-04-14T16:54:12.232Z,16.48
2023-04-14T16:56:40.135Z,16.49
2023-04-14T16:59:09.060Z,16.54
2023-04-14T17:01:36.919Z,16.53
2023-04-14T17:04:05.571Z,16.47
2023-04-14T17:06:34.041Z,16.41
2023-04-14T17:09:02.271Z,16.47
2023-04-14T17:11:31.415Z,16.49
2023-04-14T17:13:59.437Z,16.52
2023-04-14T17:16:27.511Z,16.49
2023-04-14T17:18:57.325Z,16.40
2023-04-14T17:21:25.621Z,16.36
2023-04-14T17:23:54.573Z,16.20
2023-04-14T17:26:23.515Z,16.15
2023-04-14T17:28:52.883Z,16.11
2023-04-14T17:31:20.956Z,16.05
2023-04-14T17:33:48.810Z,15.97
2023-04-14T17:36:17.573Z,15.85
2023-04-14T17:38:45.899Z,15.79
2023-04-14T17:41:13.997Z,15.76
2023-04-14T17:43:41.933Z,15.74
2023-04-14T17:46:11.823Z,15.68
2023-04-14T17:48:40.405Z,15.61
2023-04-14T17:51:08.331Z,15.55
2023-04-14T17:53:36.676Z,15.52
2023-04-14T17:56:04.720Z,15.46
2023-04-14T17:58:34.547Z,15.38
2023-04-14T18:01:02.353Z,15.29
2023-04-14T18:03:31.529Z,15.27
2023-04-14T18:05:59.287Z,15.21
2023-04-14T18:08:27.065Z,15.13
2023-04-14T18:10:54.812Z,15.06
2023-04-14T18:13:22.759Z,15.03
2023-04-14T18:15:50.791Z,14.97
2023-04-14T18:18:18.629Z,14.90
2023-04-14T18:20:50.371Z,14.84
2023-04-14T18:23:19.029Z,14.82
2023-04-14T18:28:17.564Z,14.74
2023-04-14T18:30:45.534Z,14.66
2023-04-14T18:33:13.261Z,14.62
2023-04-14T18:35:40.968Z,14.53
2023-04-14T18:38:10.110Z,14.48
2023-04-14T18:40:38.814Z,14.41
2023-04-14T18:43:06.800Z,14.35
2023-04-14T18:45:37.577Z,14.29
2023-04-14T18:48:06.368Z,14.22
2023-04-14T18:50:34.397Z,14.17
2023-04-14T18:53:02.189Z,14.10
2023-04-14T18:55:39.591Z,14.06
2023-04-14T18:58:13.478Z,14.02
2023-04-14T19:00:43.100Z,13.97
2023-04-14T19:03:11.071Z,13.94
2023-04-14T19:05:39.435Z,13.85
2023-04-14T19:08:07.754Z,13.81
2023-04-14T19:10:37.309Z,13.74
2023-04-14T19:13:05.064Z,13.70
2023-04-14T19:15:33.113Z,13.63
2023-04-14T19:18:01.072Z,13.56
2023-04-14T19:20:28.999Z,13.56
2023-04-14T19:22:56.734Z,13.52
2023-04-14T19:25:24.907Z,13.45
2023-04-14T19:27:54.090Z,13.41
2023-04-14T19:30:21.935Z,13.37
2023-04-14T19:32:50.578Z,13.32
2023-04-14T19:35:18.594Z,13.29
2023-04-14T19:37:46.352Z,13.23
2023-04-14T19:40:14.468Z,13.18
2023-04-14T19:42:42.246Z,13.12
2023-04-14T19:45:12.237Z,13.07
2023-04-14T19:47:41.299Z,13.03
2023-04-14T19:50:09.763Z,13.01
2023-04-14T19:52:37.910Z,12.95
2023-04-14T19:55:06.473Z,12.91
2023-04-14T19:57:34.237Z,12.89
2023-04-14T20:00:01.967Z,12.84
2023-04-14T20:02:31.231Z,12.77
2023-04-14T20:04:59.016Z,12.67
2023-04-14T20:07:26.696Z,12.61
2023-04-14T20:09:54.667Z,12.61
2023-04-14T20:12:22.920Z,12.57
2023-04-14T20:14:50.610Z,12.55
2023-04-14T20:17:18.373Z,12.51
2023-04-14T20:19:47.726Z,12.49
2023-04-14T20:22:15.623Z,12.43
2023-04-14T20:24:43.715Z,12.37
2023-04-14T20:27:11.453Z,12.35
2023-04-14T20:29:39.241Z,12.32
2023-04-14T20:32:07.711Z,12.30
2023-04-14T20:34:35.589Z,12.25
2023-04-14T20:37:04.710Z,12.22
2023-04-14T20:39:33.230Z,12.15
2023-04-14T20:42:01.474Z,12.06
2023-04-14T20:44:29.173Z,12.05
2023-04-14T20:46:57.011Z,12.03
2023-04-14T20:49:25.134Z,11.98
2023-04-14T20:51:52.950Z,11.93
2023-04-14T20:54:22.100Z,11.88
2023-04-14T20:56:50.410Z,11.82
2023-04-14T20:59:18.268Z,11.79
2023-04-14T21:01:47.009Z,11.75
2023-04-14T21:04:15.076Z,11.74
2023-04-14T21:06:42.941Z,11.71
2023-04-14T21:09:10.911Z,11.67
2023-04-14T21:11:39.968Z,11.63
2023-04-14T21:15:28.765Z,11.59
2023-04-14T21:16:56.850Z,11.52
2023-04-14T21:19:27.320Z,11.49
2023-04-14T21:21:55.583Z,11.45
2023-04-14T21:24:23.927Z,11.39
2023-04-14T21:26:53.186Z,11.35
2023-04-14T21:29:20.928Z,11.34
2023-04-14T21:31:48.643Z,11.30
2023-04-14T21:34:16.850Z,11.26
2023-04-14T21:36:45.454Z,11.20
2023-04-14T21:39:13.781Z,11.16
2023-04-14T21:41:41.490Z,11.11
2023-04-14T21:44:10.641Z,11.05
2023-04-14T21:46:38.614Z,11.03
2023-04-14T21:49:06.726Z,10.97
2023-04-14T21:51:34.493Z,10.92
2023-04-14T21:54:02.236Z,10.82
2023-04-14T21:56:29.939Z,10.79
2023-04-14T21:58:57.644Z,10.79
2023-04-14T22:01:27.530Z,10.79
2023-04-14T22:03:56.161Z,10.77
2023-04-14T22:06:24.558Z,10.73
2023-04-14T22:08:52.752Z,10.73
2023-04-14T22:11:20.760Z,10.75
2023-04-14T22:13:48.961Z,10.80
2023-04-14T22:16:17.452Z,10.81
2023-04-14T22:18:46.627Z,10.81
2023-04-14T22:21:14.448Z,10.78
2023-04-14T22:23:43.837Z,10.76
2023-04-14T22:26:12.544Z,10.76
2023-04-14T22:28:40.592Z,10.70
2023-04-14T22:31:09.631Z,10.66
2023-04-14T22:33:37.600Z,10.62
2023-04-14T22:36:07.549Z,10.60
2023-04-14T22:38:35.457Z,10.59
2023-04-14T22:41:03.341Z,10.56
2023-04-14T22:43:31.595Z,10.52
2023-04-14T22:45:59.491Z,10.45
2023-04-14T22:48:27.278Z,10.45
2023-04-14T22:50:54.991Z,10.44
2023-04-14T22:53:24.084Z,10.41
2023-04-14T22:55:51.975Z,10.43
2023-04-14T22:58:21.838Z,10.40
2023-04-14T23:00:49.575Z,10.41
2023-04-14T23:03:17.637Z,10.45
2023-04-14T23:05:45.642Z,10.43
2023-04-14T23:08:13.343Z,10.44
2023-04-14T23:10:42.522Z,10.41
2023-04-14T23:13:10.280Z,10.41
2023-04-14T23:15:38.218Z,10.39
2023-04-14T23:18:06.486Z,10.35
2023-04-14T23:20:34.289Z,10.32
2023-04-14T23:23:02.657Z,10.28
2023-04-14T23:25:30.486Z,10.24
2023-04-14T23:27:59.754Z,10.24
2023-04-14T23:30:27.532Z,10.24
2023-04-14T23:32:55.377Z,10.20
2023-04-14T23:35:23.220Z,10.18
2023-04-14T23:37:51.127Z,10.12
2023-04-14T23:40:18.959Z,10.08
2023-04-14T23:42:49.417Z,10.04
2023-04-14T23:45:18.602Z,10.02
2023-04-14T23:47:46.414Z,10.00
2023-04-14T23:50:14.184Z,9.99
2023-04-14T23:52:42.659Z,9.97
2023-04-14T23:55:11.127Z,9.95
2023-04-14T23:57:39.049Z,9.92
